sensor_id;sensor_type;location;lat;lon;timestamp;temperature;humidity
23562;DHT22;11959;49.418;8.728;2023-05-14T00:01:24;13.00;99.90
23562;DHT22;11959;49.418;8.728;2023-05-14T00:03:50;13.00;99.90
23562;DHT22;11959;49.418;8.728;2023-05-14T00:06:16;12.90;99.90
23562;DHT22;11959;49.418;8.728;2023-05-14T00:08:41;12.90;99.90
23562;DHT22;11959;49.418;8.728;2023-05-14T00:11:07;13.00;99.90
23562;DHT22;11959;49.418;8.728;2023-05-14T00:13:34;12.90;99.90
23562;DHT22;11959;49.418;8.728;2023-05-14T00:16:00;12.90;99.90
23562;DHT22;11959;49.418;8.728;2023-05-14T00:18:25;12.90;99.90
23562;DHT22;11959;49.418;8.728;2023-05-14T00:20:51;12.90;99.90
23562;DHT22;11959;49.418;8.728;2023-05-14T00:23:20;12.90;99.90
23562;DHT22;11959;49.418;8.728;2023-05-14T00:25:45;12.90;99.90
23562;DHT22;11959;49.418;8.728;2023-05-14T00:28:11;12.90;99.90
23562;DHT22;11959;49.418;8.728;2023-05-14T00:30:37;12.90;99.90
23562;DHT22;11959;49.418;8.728;2023-05-14T00:33:04;12.90;99.90
23562;DHT22;11959;49.418;8.728;2023-05-14T00:35:30;12.90;99.90
23562;DHT22;11959;49.418;8.728;2023-05-14T00:37:55;12.80;99.90
23562;DHT22;11959;49.418;8.728;2023-05-14T00:40:25;12.70;99.90
23562;DHT22;11959;49.418;8.728;2023-05-14T00:42:51;12.70;99.90
23562;DHT22;11959;49.418;8.728;2023-05-14T00:45:17;12.70;99.90
23562;DHT22;11959;49.418;8.728;2023-05-14T00:47:42;12.60;99.90
23562;DHT22;11959;49.418;8.728;2023-05-14T00:50:10;12.60;99.90
23562;DHT22;11959;49.418;8.728;2023-05-14T00:52:37;12.60;99.90
23562;DHT22;11959;49.418;8.728;2023-05-14T00:55:06;12.70;99.90
23562;DHT22;11959;49.418;8.728;2023-05-14T00:57:35;12.70;99.90
23562;DHT22;11959;49.418;8.728;2023-05-14T01:00:02;12.70;99.90
23562;DHT22;11959;49.418;8.728;2023-05-14T01:02:28;12.70;99.90
23562;DHT22;11959;49.418;8.728;2023-05-14T01:04:54;12.70;99.90
23562;DHT22;11959;49.418;8.728;2023-05-14T01:13:11;12.70;99.90
23562;DHT22;11959;49.418;8.728;2023-05-14T01:15:39;12.70;99.90
23562;DHT22;11959;49.418;8.728;2023-05-14T01:18:10;12.70;99.90
23562;DHT22;11959;49.418;8.728;2023-05-14T01:20:36;12.90;99.90
23562;DHT22;11959;49.418;8.728;2023-05-14T01:23:02;12.90;99.90
23562;DHT22;11959;49.418;8.728;2023-05-14T01:25:29;12.90;99.90
23562;DHT22;11959;49.418;8.728;2023-05-14T01:30:36;12.80;99.90
23562;DHT22;11959;49.418;8.728;2023-05-14T01:33:10;12.80;99.90
23562;DHT22;11959;49.418;8.728;2023-05-14T01:35:35;12.70;99.90
23562;DHT22;11959;49.418;8.728;2023-05-14T01:38:04;12.70;99.90
23562;DHT22;11959;49.418;8.728;2023-05-14T01:40:31;12.60;99.90
23562;DHT22;11959;49.418;8.728;2023-05-14T01:42:58;12.60;99.90
23562;DHT22;11959;49.418;8.728;2023-05-14T01:45:24;12.60;99.90
23562;DHT22;11959;49.418;8.728;2023-05-14T01:47:50;12.50;99.90
23562;DHT22;11959;49.418;8.728;2023-05-14T01:50:16;12.50;99.90
23562;DHT22;11959;49.418;8.728;2023-05-14T01:52:42;12.40;99.90
23562;DHT22;11959;49.418;8.728;2023-05-14T01:55:08;12.30;99.90
23562;DHT22;11959;49.418;8.728;2023-05-14T01:57:34;12.20;99.90
23562;DHT22;11959;49.418;8.728;2023-05-14T02:00:00;12.20;99.90
23562;DHT22;11959;49.418;8.728;2023-05-14T02:02:25;12.20;99.90
23562;DHT22;11959;49.418;8.728;2023-05-14T02:04:51;12.10;99.90
23562;DHT22;11959;49.418;8.728;2023-05-14T02:07:17;12.10;99.90
23562;DHT22;11959;49.418;8.728;2023-05-14T02:09:42;12.10;99.90
23562;DHT22;11959;49.418;8.728;2023-05-14T02:12:09;12.00;99.90
23562;DHT22;11959;49.418;8.728;2023-05-14T02:14:35;12.00;99.90
23562;DHT22;11959;49.418;8.728;2023-05-14T02:17:01;12.00;99.90
23562;DHT22;11959;49.418;8.728;2023-05-14T02:19:28;12.00;99.90
23562;DHT22;11959;49.418;8.728;2023-05-14T02:21:54;11.90;99.90
23562;DHT22;11959;49.418;8.728;2023-05-14T02:24:19;12.00;99.90
23562;DHT22;11959;49.418;8.728;2023-05-14T02:26:45;11.90;99.90
23562;DHT22;11959;49.418;8.728;2023-05-14T02:29:11;11.90;99.90
23562;DHT22;11959;49.418;8.728;2023-05-14T02:31:37;11.80;99.90
23562;DHT22;11959;49.418;8.728;2023-05-14T02:34:03;11.80;99.90
23562;DHT22;11959;49.418;8.728;2023-05-14T02:36:29;11.80;99.90
23562;DHT22;11959;49.418;8.728;2023-05-14T02:38:56;11.70;99.90
23562;DHT22;11959;49.418;8.728;2023-05-14T02:41:22;11.70;99.90
23562;DHT22;11959;49.418;8.728;2023-05-14T02:43:48;11.70;99.90
23562;DHT22;11959;49.418;8.728;2023-05-14T02:46:14;11.60;99.90
23562;DHT22;11959;49.418;8.728;2023-05-14T02:48:39;11.60;99.90
23562;DHT22;11959;49.418;8.728;2023-05-14T02:51:05;11.60;99.90
23562;DHT22;11959;49.418;8.728;2023-05-14T02:53:32;11.60;99.90
23562;DHT22;11959;49.418;8.728;2023-05-14T02:55:57;11.50;99.90
23562;DHT22;11959;49.418;8.728;2023-05-14T02:58:23;11.60;99.90
23562;DHT22;11959;49.418;8.728;2023-05-14T03:00:48;11.50;99.90
23562;DHT22;11959;49.418;8.728;2023-05-14T03:03:14;11.50;99.90
23562;DHT22;11959;49.418;8.728;2023-05-14T03:05:40;11.50;99.90
23562;DHT22;11959;49.418;8.728;2023-05-14T03:08:06;11.50;99.90
23562;DHT22;11959;49.418;8.728;2023-05-14T03:10:31;11.50;99.90
23562;DHT22;11959;49.418;8.728;2023-05-14T03:12:57;11.50;99.90
23562;DHT22;11959;49.418;8.728;2023-05-14T03:15:23;11.50;99.90
23562;DHT22;11959;49.418;8.728;2023-05-14T03:17:48;11.50;99.90
23562;DHT22;11959;49.418;8.728;2023-05-14T03:20:14;11.50;99.90
23562;DHT22;11959;49.418;8.728;2023-05-14T03:22:40;11.50;99.90
23562;DHT22;11959;49.418;8.728;2023-05-14T03:25:06;11.40;99.90
23562;DHT22;11959;49.418;8.728;2023-05-14T03:27:31;11.40;99.90
23562;DHT22;11959;49.418;8.728;2023-05-14T03:29:58;11.30;99.90
23562;DHT22;11959;49.418;8.728;2023-05-14T03:32:23;11.30;99.90
23562;DHT22;11959;49.418;8.728;2023-05-14T03:34:49;11.30;99.90
23562;DHT22;11959;49.418;8.728;2023-05-14T03:37:15;11.20;99.90
23562;DHT22;11959;49.418;8.728;2023-05-14T03:39:41;11.20;99.90
23562;DHT22;11959;49.418;8.728;2023-05-14T03:42:06;11.20;99.90
23562;DHT22;11959;49.418;8.728;2023-05-14T03:44:32;11.20;99.90
23562;DHT22;11959;49.418;8.728;2023-05-14T03:46:57;11.20;99.90
23562;DHT22;11959;49.418;8.728;2023-05-14T03:49:23;11.20;99.90
23562;DHT22;11959;49.418;8.728;2023-05-14T03:51:49;11.20;99.90
23562;DHT22;11959;49.418;8.728;2023-05-14T03:54:15;11.20;99.90
23562;DHT22;11959;49.418;8.728;2023-05-14T03:56:40;11.20;99.90
23562;DHT22;11959;49.418;8.728;2023-05-14T03:59:06;11.10;99.90
23562;DHT22;11959;49.418;8.728;2023-05-14T04:01:31;11.10;99.90
23562;DHT22;11959;49.418;8.728;2023-05-14T04:03:57;11.10;99.90
23562;DHT22;11959;49.418;8.728;2023-05-14T04:06:23;11.10;99.90
23562;DHT22;11959;49.418;8.728;2023-05-14T04:08:48;11.10;99.90
23562;DHT22;11959;49.418;8.728;2023-05-14T04:11:14;11.10;99.90
23562;DHT22;11959;49.418;8.728;2023-05-14T04:13:39;11.10;99.90
23562;DHT22;11959;49.418;8.728;2023-05-14T04:16:05;11.10;99.90
23562;DHT22;11959;49.418;8.728;2023-05-14T04:18:31;11.00;99.90
23562;DHT22;11959;49.418;8.728;2023-05-14T04:21:00;10.90;99.90
23562;DHT22;11959;49.418;8.728;2023-05-14T04:23:25;10.90;99.90
23562;DHT22;11959;49.418;8.728;2023-05-14T04:25:51;10.90;99.90
23562;DHT22;11959;49.418;8.728;2023-05-14T04:28:16;10.80;99.90
23562;DHT22;11959;49.418;8.728;2023-05-14T04:30:42;10.90;99.90
23562;DHT22;11959;49.418;8.728;2023-05-14T04:33:08;10.80;99.90
23562;DHT22;11959;49.418;8.728;2023-05-14T04:35:33;10.90;99.90
23562;DHT22;11959;49.418;8.728;2023-05-14T04:37:59;10.90;99.90
23562;DHT22;11959;49.418;8.728;2023-05-14T04:40:25;10.90;99.90
23562;DHT22;11959;49.418;8.728;2023-05-14T04:42:50;11.00;99.90
23562;DHT22;11959;49.418;8.728;2023-05-14T04:45:16;11.00;99.90
23562;DHT22;11959;49.418;8.728;2023-05-14T04:47:42;11.00;99.90
23562;DHT22;11959;49.418;8.728;2023-05-14T04:50:08;11.00;99.90
23562;DHT22;11959;49.418;8.728;2023-05-14T04:52:34;11.00;99.90
23562;DHT22;11959;49.418;8.728;2023-05-14T04:55:00;11.10;99.90
23562;DHT22;11959;49.418;8.728;2023-05-14T04:57:25;11.10;99.90
23562;DHT22;11959;49.418;8.728;2023-05-14T04:59:51;11.20;99.90
23562;DHT22;11959;49.418;8.728;2023-05-14T05:02:17;11.20;99.90
23562;DHT22;11959;49.418;8.728;2023-05-14T05:04:42;11.30;99.90
23562;DHT22;11959;49.418;8.728;2023-05-14T05:07:08;11.30;99.90
23562;DHT22;11959;49.418;8.728;2023-05-14T05:09:34;11.40;99.90
23562;DHT22;11959;49.418;8.728;2023-05-14T05:11:59;11.50;99.90
23562;DHT22;11959;49.418;8.728;2023-05-14T05:14:26;11.60;99.90
23562;DHT22;11959;49.418;8.728;2023-05-14T05:16:51;11.70;99.90
23562;DHT22;11959;49.418;8.728;2023-05-14T05:19:17;11.90;99.90
23562;DHT22;11959;49.418;8.728;2023-05-14T05:21:43;12.00;99.90
23562;DHT22;11959;49.418;8.728;2023-05-14T05:24:08;12.00;99.90
23562;DHT22;11959;49.418;8.728;2023-05-14T05:26:34;12.10;99.90
23562;DHT22;11959;49.418;8.728;2023-05-14T05:29:03;12.20;99.90
23562;DHT22;11959;49.418;8.728;2023-05-14T05:31:30;12.20;99.90
23562;DHT22;11959;49.418;8.728;2023-05-14T05:33:57;12.30;99.90
23562;DHT22;11959;49.418;8.728;2023-05-14T05:36:23;12.50;99.90
23562;DHT22;11959;49.418;8.728;2023-05-14T05:38:49;12.50;99.90
23562;DHT22;11959;49.418;8.728;2023-05-14T05:41:14;12.60;99.90
23562;DHT22;11959;49.418;8.728;2023-05-14T05:43:40;12.70;99.90
23562;DHT22;11959;49.418;8.728;2023-05-14T05:46:06;12.70;99.90
23562;DHT22;11959;49.418;8.728;2023-05-14T05:48:32;12.80;99.90
23562;DHT22;11959;49.418;8.728;2023-05-14T05:50:57;12.90;99.90
23562;DHT22;11959;49.418;8.728;2023-05-14T05:53:23;12.90;99.90
23562;DHT22;11959;49.418;8.728;2023-05-14T05:55:48;13.00;99.90
23562;DHT22;11959;49.418;8.728;2023-05-14T05:58:17;13.20;99.90
23562;DHT22;11959;49.418;8.728;2023-05-14T06:00:43;13.30;99.90
23562;DHT22;11959;49.418;8.728;2023-05-14T06:03:10;13.30;99.90
23562;DHT22;11959;49.418;8.728;2023-05-14T06:05:36;13.40;99.90
23562;DHT22;11959;49.418;8.728;2023-05-14T06:08:01;13.50;99.90
23562;DHT22;11959;49.418;8.728;2023-05-14T06:10:27;13.60;99.90
23562;DHT22;11959;49.418;8.728;2023-05-14T06:12:53;13.70;99.90
23562;DHT22;11959;49.418;8.728;2023-05-14T06:15:19;13.80;99.90
23562;DHT22;11959;49.418;8.728;2023-05-14T06:17:44;13.90;99.90
23562;DHT22;11959;49.418;8.728;2023-05-14T06:20:10;14.00;99.90
23562;DHT22;11959;49.418;8.728;2023-05-14T06:22:36;14.00;99.90
23562;DHT22;11959;49.418;8.728;2023-05-14T06:25:02;14.10;99.90
23562;DHT22;11959;49.418;8.728;2023-05-14T06:27:28;14.00;99.90
23562;DHT22;11959;49.418;8.728;2023-05-14T06:29:54;14.10;99.90
23562;DHT22;11959;49.418;8.728;2023-05-14T06:32:20;14.20;99.90
23562;DHT22;11959;49.418;8.728;2023-05-14T06:34:45;14.30;99.90
23562;DHT22;11959;49.418;8.728;2023-05-14T06:37:11;14.30;99.90
23562;DHT22;11959;49.418;8.728;2023-05-14T06:39:37;14.40;99.90
23562;DHT22;11959;49.418;8.728;2023-05-14T06:42:03;14.50;99.90
23562;DHT22;11959;49.418;8.728;2023-05-14T06:44:28;14.60;99.90
23562;DHT22;11959;49.418;8.728;2023-05-14T06:46:54;14.50;99.90
23562;DHT22;11959;49.418;8.728;2023-05-14T06:49:20;14.60;99.90
23562;DHT22;11959;49.418;8.728;2023-05-14T06:51:46;14.60;99.90
23562;DHT22;11959;49.418;8.728;2023-05-14T06:54:11;14.60;99.90
23562;DHT22;11959;49.418;8.728;2023-05-14T06:56:37;14.60;99.90
23562;DHT22;11959;49.418;8.728;2023-05-14T06:59:03;14.70;99.90
23562;DHT22;11959;49.418;8.728;2023-05-14T07:01:28;14.70;99.90
23562;DHT22;11959;49.418;8.728;2023-05-14T07:03:54;14.80;99.90
23562;DHT22;11959;49.418;8.728;2023-05-14T07:06:20;15.00;99.90
23562;DHT22;11959;49.418;8.728;2023-05-14T07:08:46;15.00;99.90
23562;DHT22;11959;49.418;8.728;2023-05-14T07:11:12;15.10;99.90
23562;DHT22;11959;49.418;8.728;2023-05-14T07:13:38;15.20;99.90
23562;DHT22;11959;49.418;8.728;2023-05-14T07:16:05;15.30;99.90
23562;DHT22;11959;49.418;8.728;2023-05-14T07:18:30;15.40;99.90
23562;DHT22;11959;49.418;8.728;2023-05-14T07:20:56;15.40;99.90
23562;DHT22;11959;49.418;8.728;2023-05-14T07:23:22;15.40;99.90
23562;DHT22;11959;49.418;8.728;2023-05-14T07:25:47;15.30;99.90
23562;DHT22;11959;49.418;8.728;2023-05-14T07:28:13;15.30;99.90
23562;DHT22;11959;49.418;8.728;2023-05-14T07:30:38;15.30;99.90
23562;DHT22;11959;49.418;8.728;2023-05-14T07:33:04;15.30;99.90
23562;DHT22;11959;49.418;8.728;2023-05-14T07:35:30;15.40;99.90
23562;DHT22;11959;49.418;8.728;2023-05-14T07:37:55;15.40;99.90
23562;DHT22;11959;49.418;8.728;2023-05-14T07:40:21;15.40;99.90
23562;DHT22;11959;49.418;8.728;2023-05-14T07:42:49;15.40;99.90
23562;DHT22;11959;49.418;8.728;2023-05-14T07:45:15;15.40;99.90
23562;DHT22;11959;49.418;8.728;2023-05-14T07:47:40;15.40;99.90
23562;DHT22;11959;49.418;8.728;2023-05-14T07:50:07;15.30;99.90
23562;DHT22;11959;49.418;8.728;2023-05-14T07:52:32;15.30;99.90
23562;DHT22;11959;49.418;8.728;2023-05-14T07:54:58;15.30;99.90
23562;DHT22;11959;49.418;8.728;2023-05-14T07:57:25;15.40;99.90
23562;DHT22;11959;49.418;8.728;2023-05-14T07:59:51;15.40;99.90
23562;DHT22;11959;49.418;8.728;2023-05-14T08:02:17;15.60;99.90
23562;DHT22;11959;49.418;8.728;2023-05-14T08:04:42;15.70;99.90
23562;DHT22;11959;49.418;8.728;2023-05-14T08:07:08;15.90;99.90
23562;DHT22;11959;49.418;8.728;2023-05-14T08:09:34;16.10;99.90
23562;DHT22;11959;49.418;8.728;2023-05-14T08:12:00;16.30;99.90
23562;DHT22;11959;49.418;8.728;2023-05-14T08:14:26;16.30;99.90
23562;DHT22;11959;49.418;8.728;2023-05-14T08:16:51;16.40;99.90
23562;DHT22;11959;49.418;8.728;2023-05-14T08:19:17;16.40;99.90
23562;DHT22;11959;49.418;8.728;2023-05-14T08:21:43;16.50;99.90
23562;DHT22;11959;49.418;8.728;2023-05-14T08:24:09;16.70;99.90
23562;DHT22;11959;49.418;8.728;2023-05-14T08:26:34;16.80;99.90
23562;DHT22;11959;49.418;8.728;2023-05-14T08:29:00;17.00;99.90
23562;DHT22;11959;49.418;8.728;2023-05-14T08:31:25;17.20;99.90
23562;DHT22;11959;49.418;8.728;2023-05-14T08:33:51;17.40;99.90
23562;DHT22;11959;49.418;8.728;2023-05-14T08:36:17;17.50;99.90
23562;DHT22;11959;49.418;8.728;2023-05-14T08:38:42;17.50;99.90
23562;DHT22;11959;49.418;8.728;2023-05-14T08:41:10;17.40;99.90
23562;DHT22;11959;49.418;8.728;2023-05-14T08:46:30;17.40;99.90
23562;DHT22;11959;49.418;8.728;2023-05-14T08:48:59;17.40;99.90
23562;DHT22;11959;49.418;8.728;2023-05-14T08:51:29;17.40;99.90
23562;DHT22;11959;49.418;8.728;2023-05-14T08:53:56;17.60;99.90
23562;DHT22;11959;49.418;8.728;2023-05-14T08:56:24;17.60;99.90
23562;DHT22;11959;49.418;8.728;2023-05-14T08:58:50;17.70;99.90
23562;DHT22;11959;49.418;8.728;2023-05-14T09:01:17;17.70;99.90
23562;DHT22;11959;49.418;8.728;2023-05-14T09:03:44;17.80;99.90
23562;DHT22;11959;49.418;8.728;2023-05-14T09:06:11;17.80;99.90
23562;DHT22;11959;49.418;8.728;2023-05-14T09:08:38;17.90;99.90
23562;DHT22;11959;49.418;8.728;2023-05-14T09:11:04;17.90;99.90
23562;DHT22;11959;49.418;8.728;2023-05-14T09:13:29;17.90;99.90
23562;DHT22;11959;49.418;8.728;2023-05-14T09:15:56;17.90;99.90
23562;DHT22;11959;49.418;8.728;2023-05-14T09:18:22;17.80;99.90
23562;DHT22;11959;49.418;8.728;2023-05-14T09:20:48;17.70;99.90
23562;DHT22;11959;49.418;8.728;2023-05-14T09:23:13;17.70;99.90
23562;DHT22;11959;49.418;8.728;2023-05-14T09:25:40;17.60;99.90
23562;DHT22;11959;49.418;8.728;2023-05-14T09:28:08;17.60;99.90
23562;DHT22;11959;49.418;8.728;2023-05-14T09:30:33;17.40;99.90
23562;DHT22;11959;49.418;8.728;2023-05-14T09:33:01;17.30;99.90
23562;DHT22;11959;49.418;8.728;2023-05-14T09:35:28;17.20;99.90
23562;DHT22;11959;49.418;8.728;2023-05-14T09:37:54;17.20;99.90
23562;DHT22;11959;49.418;8.728;2023-05-14T09:40:21;17.20;99.90
23562;DHT22;11959;49.418;8.728;2023-05-14T09:42:48;17.30;99.90
23562;DHT22;11959;49.418;8.728;2023-05-14T09:45:14;17.40;99.90
23562;DHT22;11959;49.418;8.728;2023-05-14T09:47:41;17.40;99.90
23562;DHT22;11959;49.418;8.728;2023-05-14T09:50:07;17.40;99.90
23562;DHT22;11959;49.418;8.728;2023-05-14T09:52:34;17.40;99.90
23562;DHT22;11959;49.418;8.728;2023-05-14T09:55:00;17.50;99.90
23562;DHT22;11959;49.418;8.728;2023-05-14T09:57:26;17.60;99.90
23562;DHT22;11959;49.418;8.728;2023-05-14T09:59:52;17.70;99.90
23562;DHT22;11959;49.418;8.728;2023-05-14T10:02:27;17.90;99.90
23562;DHT22;11959;49.418;8.728;2023-05-14T10:04:56;18.00;99.90
23562;DHT22;11959;49.418;8.728;2023-05-14T10:07:30;18.00;99.90
23562;DHT22;11959;49.418;8.728;2023-05-14T10:10:01;18.00;99.90
23562;DHT22;11959;49.418;8.728;2023-05-14T10:12:31;18.10;99.90
23562;DHT22;11959;49.418;8.728;2023-05-14T10:15:06;18.10;99.90
23562;DHT22;11959;49.418;8.728;2023-05-14T10:17:35;18.20;99.90
23562;DHT22;11959;49.418;8.728;2023-05-14T10:20:02;18.20;99.90
23562;DHT22;11959;49.418;8.728;2023-05-14T10:22:33;18.20;99.90
23562;DHT22;11959;49.418;8.728;2023-05-14T10:25:00;18.20;99.90
23562;DHT22;11959;49.418;8.728;2023-05-14T10:27:26;18.10;99.90
23562;DHT22;11959;49.418;8.728;2023-05-14T10:29:53;18.20;99.90
23562;DHT22;11959;49.418;8.728;2023-05-14T10:32:23;18.10;99.90
23562;DHT22;11959;49.418;8.728;2023-05-14T10:34:51;18.00;99.90
23562;DHT22;11959;49.418;8.728;2023-05-14T10:37:21;18.00;99.90
23562;DHT22;11959;49.418;8.728;2023-05-14T10:40:00;18.00;99.90
23562;DHT22;11959;49.418;8.728;2023-05-14T10:42:37;17.90;99.90
23562;DHT22;11959;49.418;8.728;2023-05-14T10:45:06;17.90;99.90
23562;DHT22;11959;49.418;8.728;2023-05-14T10:47:37;17.90;99.90
23562;DHT22;11959;49.418;8.728;2023-05-14T10:50:05;17.80;99.90
23562;DHT22;11959;49.418;8.728;2023-05-14T10:52:32;17.80;99.90
23562;DHT22;11959;49.418;8.728;2023-05-14T10:55:01;17.70;99.90
23562;DHT22;11959;49.418;8.728;2023-05-14T10:57:29;17.70;99.90
23562;DHT22;11959;49.418;8.728;2023-05-14T10:59:56;17.60;99.90
23562;DHT22;11959;49.418;8.728;2023-05-14T11:02:30;17.60;99.90
23562;DHT22;11959;49.418;8.728;2023-05-14T11:05:15;17.70;99.90
23562;DHT22;11959;49.418;8.728;2023-05-14T11:07:46;17.70;99.90
23562;DHT22;11959;49.418;8.728;2023-05-14T11:10:14;17.80;99.90
23562;DHT22;11959;49.418;8.728;2023-05-14T11:12:45;17.80;99.90
23562;DHT22;11959;49.418;8.728;2023-05-14T11:15:14;17.70;99.90
23562;DHT22;11959;49.418;8.728;2023-05-14T11:17:44;17.70;99.90
23562;DHT22;11959;49.418;8.728;2023-05-14T11:20:11;17.70;99.90
23562;DHT22;11959;49.418;8.728;2023-05-14T11:22:39;17.70;99.90
23562;DHT22;11959;49.418;8.728;2023-05-14T11:25:06;17.80;99.90
23562;DHT22;11959;49.418;8.728;2023-05-14T11:27:37;17.70;99.90
23562;DHT22;11959;49.418;8.728;2023-05-14T11:30:03;17.70;99.90
23562;DHT22;11959;49.418;8.728;2023-05-14T11:32:31;17.70;99.90
23562;DHT22;11959;49.418;8.728;2023-05-14T11:34:57;17.60;99.90
23562;DHT22;11959;49.418;8.728;2023-05-14T11:37:28;17.60;99.90
23562;DHT22;11959;49.418;8.728;2023-05-14T11:39:58;17.60;99.90
23562;DHT22;11959;49.418;8.728;2023-05-14T11:42:24;17.50;99.90
23562;DHT22;11959;49.418;8.728;2023-05-14T11:44:51;17.60;99.90
23562;DHT22;11959;49.418;8.728;2023-05-14T11:47:19;17.60;99.90
23562;DHT22;11959;49.418;8.728;2023-05-14T11:49:45;17.60;99.90
23562;DHT22;11959;49.418;8.728;2023-05-14T11:52:13;17.60;99.90
23562;DHT22;11959;49.418;8.728;2023-05-14T11:54:40;17.70;99.90
23562;DHT22;11959;49.418;8.728;2023-05-14T11:57:08;17.70;99.90
23562;DHT22;11959;49.418;8.728;2023-05-14T11:59:34;17.70;99.90
23562;DHT22;11959;49.418;8.728;2023-05-14T12:02:01;17.90;99.90
23562;DHT22;11959;49.418;8.728;2023-05-14T12:04:28;17.90;99.90
23562;DHT22;11959;49.418;8.728;2023-05-14T12:06:56;18.00;99.90
23562;DHT22;11959;49.418;8.728;2023-05-14T12:09:22;18.00;99.90
23562;DHT22;11959;49.418;8.728;2023-05-14T12:11:49;18.00;99.90
23562;DHT22;11959;49.418;8.728;2023-05-14T12:14:20;18.00;99.90
23562;DHT22;11959;49.418;8.728;2023-05-14T12:16:47;18.10;99.90
23562;DHT22;11959;49.418;8.728;2023-05-14T12:19:17;18.20;99.90
23562;DHT22;11959;49.418;8.728;2023-05-14T12:21:45;18.20;99.90
23562;DHT22;11959;49.418;8.728;2023-05-14T12:24:16;18.30;99.90
23562;DHT22;11959;49.418;8.728;2023-05-14T12:26:49;18.30;99.90
23562;DHT22;11959;49.418;8.728;2023-05-14T12:29:16;18.30;99.90
23562;DHT22;11959;49.418;8.728;2023-05-14T12:31:48;18.30;99.90
23562;DHT22;11959;49.418;8.728;2023-05-14T12:34:15;18.20;99.90
23562;DHT22;11959;49.418;8.728;2023-05-14T12:36:41;18.40;99.90
23562;DHT22;11959;49.418;8.728;2023-05-14T12:39:14;18.50;99.90
23562;DHT22;11959;49.418;8.728;2023-05-14T12:41:41;18.70;99.90
23562;DHT22;11959;49.418;8.728;2023-05-14T12:44:06;18.80;99.90
23562;DHT22;11959;49.418;8.728;2023-05-14T12:46:32;18.70;99.90
23562;DHT22;11959;49.418;8.728;2023-05-14T12:48:58;18.80;99.90
23562;DHT22;11959;49.418;8.728;2023-05-14T12:51:24;18.90;99.90
23562;DHT22;11959;49.418;8.728;2023-05-14T12:53:50;19.00;99.90
23562;DHT22;11959;49.418;8.728;2023-05-14T12:56:18;19.10;99.90
23562;DHT22;11959;49.418;8.728;2023-05-14T12:58:44;19.20;99.90
23562;DHT22;11959;49.418;8.728;2023-05-14T13:01:11;19.30;99.90
23562;DHT22;11959;49.418;8.728;2023-05-14T13:03:37;19.40;99.90
23562;DHT22;11959;49.418;8.728;2023-05-14T13:06:02;19.50;99.90
23562;DHT22;11959;49.418;8.728;2023-05-14T13:08:28;19.50;99.90
23562;DHT22;11959;49.418;8.728;2023-05-14T13:10:54;19.40;99.90
23562;DHT22;11959;49.418;8.728;2023-05-14T13:13:21;19.40;99.90
23562;DHT22;11959;49.418;8.728;2023-05-14T13:15:46;19.40;99.90
23562;DHT22;11959;49.418;8.728;2023-05-14T13:18:13;19.40;99.90
23562;DHT22;11959;49.418;8.728;2023-05-14T13:20:39;19.40;99.90
23562;DHT22;11959;49.418;8.728;2023-05-14T13:23:05;19.40;99.90
23562;DHT22;11959;49.418;8.728;2023-05-14T13:25:30;19.40;99.90
23562;DHT22;11959;49.418;8.728;2023-05-14T13:27:56;19.50;99.90
23562;DHT22;11959;49.418;8.728;2023-05-14T13:30:22;19.50;99.90
23562;DHT22;11959;49.418;8.728;2023-05-14T13:32:48;19.40;99.90
23562;DHT22;11959;49.418;8.728;2023-05-14T13:35:13;19.40;99.90
23562;DHT22;11959;49.418;8.728;2023-05-14T13:37:39;19.50;99.90
23562;DHT22;11959;49.418;8.728;2023-05-14T13:40:05;19.60;99.90
23562;DHT22;11959;49.418;8.728;2023-05-14T13:42:36;19.70;99.90
23562;DHT22;11959;49.418;8.728;2023-05-14T13:45:04;19.60;99.90
23562;DHT22;11959;49.418;8.728;2023-05-14T13:47:30;19.60;99.90
23562;DHT22;11959;49.418;8.728;2023-05-14T13:49:57;19.60;99.90
23562;DHT22;11959;49.418;8.728;2023-05-14T13:52:22;19.80;99.90
23562;DHT22;11959;49.418;8.728;2023-05-14T13:54:50;19.80;99.90
23562;DHT22;11959;49.418;8.728;2023-05-14T13:57:19;19.70;99.90
23562;DHT22;11959;49.418;8.728;2023-05-14T13:59:51;19.70;99.90
23562;DHT22;11959;49.418;8.728;2023-05-14T14:02:18;19.70;99.90
23562;DHT22;11959;49.418;8.728;2023-05-14T14:04:43;19.60;99.90
23562;DHT22;11959;49.418;8.728;2023-05-14T14:07:09;19.70;99.90
23562;DHT22;11959;49.418;8.728;2023-05-14T14:09:35;19.60;99.90
23562;DHT22;11959;49.418;8.728;2023-05-14T14:12:02;19.70;99.90
23562;DHT22;11959;49.418;8.728;2023-05-14T14:14:28;19.70;99.90
23562;DHT22;11959;49.418;8.728;2023-05-14T14:16:54;19.70;99.90
23562;DHT22;11959;49.418;8.728;2023-05-14T14:19:19;19.60;99.90
23562;DHT22;11959;49.418;8.728;2023-05-14T14:21:45;19.60;99.90
23562;DHT22;11959;49.418;8.728;2023-05-14T14:24:12;19.80;99.90
23562;DHT22;11959;49.418;8.728;2023-05-14T14:26:39;19.80;99.90
23562;DHT22;11959;49.418;8.728;2023-05-14T14:29:04;19.70;99.90
23562;DHT22;11959;49.418;8.728;2023-05-14T14:31:30;19.70;99.90
23562;DHT22;11959;49.418;8.728;2023-05-14T14:33:56;19.50;99.90
23562;DHT22;11959;49.418;8.728;2023-05-14T14:36:21;19.40;99.90
23562;DHT22;11959;49.418;8.728;2023-05-14T14:38:47;19.40;99.90
23562;DHT22;11959;49.418;8.728;2023-05-14T14:41:12;19.30;99.90
23562;DHT22;11959;49.418;8.728;2023-05-14T14:43:39;19.10;99.90
23562;DHT22;11959;49.418;8.728;2023-05-14T14:46:06;19.00;99.90
23562;DHT22;11959;49.418;8.728;2023-05-14T14:48:34;18.90;99.90
23562;DHT22;11959;49.418;8.728;2023-05-14T14:51:05;19.00;99.90
23562;DHT22;11959;49.418;8.728;2023-05-14T14:53:31;19.10;99.90
23562;DHT22;11959;49.418;8.728;2023-05-14T14:55:58;19.10;99.90
23562;DHT22;11959;49.418;8.728;2023-05-14T14:58:24;19.20;99.90
23562;DHT22;11959;49.418;8.728;2023-05-14T15:00:52;19.20;99.90
23562;DHT22;11959;49.418;8.728;2023-05-14T15:03:18;19.30;99.90
23562;DHT22;11959;49.418;8.728;2023-05-14T15:05:44;19.40;99.90
23562;DHT22;11959;49.418;8.728;2023-05-14T15:08:10;19.50;99.90
23562;DHT22;11959;49.418;8.728;2023-05-14T15:10:35;19.70;99.90
23562;DHT22;11959;49.418;8.728;2023-05-14T15:13:03;20.00;99.90
23562;DHT22;11959;49.418;8.728;2023-05-14T15:15:29;20.20;99.90
23562;DHT22;11959;49.418;8.728;2023-05-14T15:17:55;20.40;99.90
23562;DHT22;11959;49.418;8.728;2023-05-14T15:20:20;20.50;99.90
23562;DHT22;11959;49.418;8.728;2023-05-14T15:22:46;20.50;99.90
23562;DHT22;11959;49.418;8.728;2023-05-14T15:25:13;20.70;99.90
23562;DHT22;11959;49.418;8.728;2023-05-14T15:27:39;20.60;99.90
23562;DHT22;11959;49.418;8.728;2023-05-14T15:30:05;20.60;99.90
23562;DHT22;11959;49.418;8.728;2023-05-14T15:32:32;20.40;99.90
23562;DHT22;11959;49.418;8.728;2023-05-14T15:34:58;20.30;99.90
23562;DHT22;11959;49.418;8.728;2023-05-14T15:37:25;20.00;99.90